Terminal Aerodrome Forecast
Issued by NWS

Home | Current Version | Previous Version | Text Only | Print | Product List | Glossary Off
Versions: 1 2 3 4 5 6 7 8 9 10 11 12 13 14 15

075
FTUS43 KPAH 252324
TAFCGI
TAF
KCGI 252324Z 2600/2624 30006KT P6SM FEW080
     FM260400 36003KT P6SM BKN120
     FM261100 01004KT P6SM SCT050 BKN090 PROB30 2611/2616 -SHRA
     FM261700 VRB03KT P6SM SCT060 BKN150=

USA.gov is the U.S. government's official web portal to all federal, state and local government web resources and services.